createdAt,value
2018-07-24T00:01:43.578Z,33.27
2018-07-24T00:04:13.048Z,33.93
2018-07-24T00:06:42.532Z,36.23
2018-07-24T00:09:12.101Z,34.67
2018-07-24T00:11:41.637Z,34.17
2018-07-24T00:14:11.160Z,37.70
2018-07-24T00:16:40.658Z,38.23
2018-07-24T00:19:10.146Z,38.33
2018-07-24T00:21:39.679Z,41.80
2018-07-24T00:24:09.169Z,39.50
2018-07-24T00:26:38.618Z,40.50
2018-07-24T00:29:08.117Z,38.73
2018-07-24T00:31:37.628Z,40.80
2018-07-24T00:34:07.192Z,39.80
2018-07-24T00:36:36.674Z,39.10
2018-07-24T00:39:07.799Z,38.77
2018-07-24T00:41:37.826Z,40.20
2018-07-24T00:44:07.570Z,40.30
2018-07-24T00:46:37.105Z,43.60
2018-07-24T00:49:06.608Z,42.20
2018-07-24T00:51:36.095Z,44.00
2018-07-24T00:54:05.912Z,46.47
2018-07-24T00:56:35.415Z,44.40
2018-07-24T00:59:04.981Z,45.83
2018-07-24T01:01:34.500Z,45.83
2018-07-24T01:04:04.562Z,46.70
2018-07-24T01:06:34.146Z,44.27
2018-07-24T01:09:03.783Z,47.60
2018-07-24T01:11:33.286Z,47.83
2018-07-24T01:14:02.839Z,46.87
2018-07-24T01:16:32.398Z,46.43
2018-07-24T01:19:01.894Z,45.93
2018-07-24T01:21:31.490Z,44.50
2018-07-24T01:24:01.008Z,43.60
2018-07-24T01:26:30.425Z,42.57
2018-07-24T01:28:59.905Z,46.50
2018-07-24T01:31:29.417Z,43.00
2018-07-24T01:33:58.852Z,43.07
2018-07-24T01:36:28.340Z,43.97
2018-07-24T01:38:57.841Z,45.33
2018-07-24T01:41:27.293Z,47.87
2018-07-24T01:43:56.551Z,45.20
2018-07-24T01:46:25.880Z,47.87
2018-07-24T01:48:55.472Z,47.00
2018-07-24T01:51:25.003Z,47.30
2018-07-24T01:53:54.427Z,48.13
2018-07-24T01:56:23.906Z,49.70
2018-07-24T01:58:53.436Z,49.70
2018-07-24T02:01:22.931Z,49.93
2018-07-24T02:03:52.394Z,49.87
2018-07-24T02:06:21.932Z,46.10
2018-07-24T02:08:51.405Z,46.47
2018-07-24T02:11:20.895Z,43.60
2018-07-24T02:13:50.406Z,40.93
2018-07-24T02:16:20.095Z,43.30
2018-07-24T02:18:49.646Z,45.47
2018-07-24T02:21:19.135Z,44.53
2018-07-24T02:23:48.589Z,44.97
2018-07-24T02:26:18.066Z,46.17
2018-07-24T02:28:47.525Z,46.03
2018-07-24T02:31:16.994Z,46.30
2018-07-24T02:33:46.513Z,46.83
2018-07-24T02:36:16.010Z,46.87
2018-07-24T02:38:45.587Z,49.30
2018-07-24T02:41:16.082Z,52.00
2018-07-24T02:43:45.530Z,50.47
2018-07-24T02:46:15.044Z,50.30
2018-07-24T02:48:44.852Z,49.70
2018-07-24T02:51:13.908Z,49.57
2018-07-24T02:53:43.262Z,47.63
2018-07-24T02:56:12.763Z,45.67
2018-07-24T02:58:42.206Z,49.73
2018-07-24T03:01:11.664Z,49.43
2018-07-24T03:03:41.427Z,47.60
2018-07-24T03:06:10.921Z,49.90
2018-07-24T03:08:40.457Z,47.40
2018-07-24T03:11:09.996Z,48.90
2018-07-24T03:13:39.439Z,47.93
2018-07-24T03:16:08.935Z,48.73
2018-07-24T03:18:38.560Z,46.73
2018-07-24T03:21:07.988Z,46.20
2018-07-24T03:23:37.476Z,48.97
2018-07-24T03:26:07.126Z,46.50
2018-07-24T03:28:36.803Z,49.60
2018-07-24T03:31:06.390Z,49.53
2018-07-24T03:33:35.919Z,47.77
2018-07-24T03:36:05.447Z,51.70
2018-07-24T03:38:34.957Z,48.53
2018-07-24T03:41:04.613Z,49.47
2018-07-24T03:43:34.113Z,50.20
2018-07-24T03:46:03.586Z,51.40
2018-07-24T03:48:33.126Z,47.53
2018-07-24T03:51:02.627Z,47.20
2018-07-24T03:53:32.151Z,48.30
2018-07-24T03:56:08.490Z,47.87
2018-07-24T03:58:38.373Z,48.73
2018-07-24T04:01:08.413Z,50.80
2018-07-24T04:03:37.966Z,47.87
2018-07-24T04:06:07.499Z,48.87
2018-07-24T04:08:36.995Z,47.20
2018-07-24T04:11:06.541Z,46.70
2018-07-24T04:13:36.025Z,46.90
2018-07-24T04:16:05.511Z,46.63
2018-07-24T04:18:39.399Z,41.90
2018-07-24T04:21:08.944Z,42.80
2018-07-24T04:23:38.358Z,43.00
2018-07-24T04:26:07.844Z,42.67
2018-07-24T04:28:37.328Z,38.60
2018-07-24T04:31:06.838Z,38.90
2018-07-24T04:33:36.336Z,36.60
2018-07-24T04:36:05.947Z,36.33
2018-07-24T04:38:35.401Z,38.00
2018-07-24T04:41:05.071Z,35.27
2018-07-24T04:43:34.633Z,34.50
2018-07-24T04:46:04.175Z,33.37
2018-07-24T04:48:33.413Z,33.80
2018-07-24T04:51:02.874Z,31.70
2018-07-24T04:53:32.375Z,32.20
2018-07-24T04:56:01.898Z,31.20
2018-07-24T04:58:31.445Z,30.53
2018-07-24T05:01:00.881Z,27.60
2018-07-24T05:03:30.426Z,27.60
2018-07-24T05:05:59.837Z,28.20
2018-07-24T05:08:29.249Z,24.77
2018-07-24T05:10:58.788Z,27.03
2018-07-24T05:13:28.262Z,25.83
2018-07-24T05:15:57.724Z,24.50
2018-07-24T05:18:27.306Z,24.40
2018-07-24T05:20:56.869Z,23.50
2018-07-24T05:23:26.380Z,23.57
2018-07-24T05:25:55.986Z,23.40
2018-07-24T05:28:25.424Z,22.60
2018-07-24T05:30:54.918Z,20.67
2018-07-24T05:33:24.442Z,19.73
2018-07-24T05:35:54.353Z,18.50
2018-07-24T05:38:23.944Z,16.10
2018-07-24T05:40:53.618Z,18.40
2018-07-24T05:43:23.124Z,17.70
2018-07-24T05:45:52.644Z,17.40
2018-07-24T05:48:22.102Z,17.17
2018-07-24T05:50:51.594Z,15.40
2018-07-24T05:53:21.239Z,16.57
2018-07-24T05:55:50.761Z,15.37
2018-07-24T05:58:20.277Z,14.53
2018-07-24T06:00:49.792Z,15.83
2018-07-24T06:03:19.346Z,15.30
2018-07-24T06:05:50.587Z,14.80
2018-07-24T06:08:20.204Z,14.70
2018-07-24T06:10:51.523Z,14.70
2018-07-24T06:13:21.163Z,15.00
2018-07-24T06:15:52.276Z,15.33
2018-07-24T06:18:22.197Z,15.20
2018-07-24T06:20:53.271Z,15.00
2018-07-24T06:23:22.874Z,14.40
2018-07-24T06:25:53.335Z,15.40
2018-07-24T06:28:23.307Z,15.80
2018-07-24T06:30:53.186Z,16.30
2018-07-24T06:33:22.822Z,17.30
2018-07-24T06:35:53.281Z,18.20
2018-07-24T06:38:22.817Z,18.30
2018-07-24T06:40:53.581Z,16.97
2018-07-24T06:43:23.067Z,19.20
2018-07-24T06:45:53.813Z,18.50
2018-07-24T06:48:23.314Z,18.00
2018-07-24T06:50:53.236Z,17.73
2018-07-24T06:53:22.922Z,19.00
2018-07-24T06:55:52.443Z,19.40
2018-07-24T06:58:21.908Z,18.97
2018-07-24T07:00:51.438Z,17.90
2018-07-24T07:03:20.914Z,18.27
2018-07-24T07:05:51.982Z,19.10
2018-07-24T07:08:21.515Z,20.93
2018-07-24T07:10:51.146Z,20.80
2018-07-24T07:13:21.022Z,20.93
2018-07-24T07:15:50.484Z,19.50
2018-07-24T07:18:19.962Z,20.40
2018-07-24T07:20:49.527Z,21.93
2018-07-24T07:23:19.069Z,19.57
2018-07-24T07:25:48.589Z,18.90
2018-07-24T07:28:18.174Z,17.93
2018-07-24T07:30:47.636Z,18.77
2018-07-24T07:33:17.150Z,17.63
2018-07-24T07:35:46.738Z,19.30
2018-07-24T07:38:16.238Z,18.17
2018-07-24T07:40:45.772Z,18.20
2018-07-24T07:43:15.359Z,17.87
2018-07-24T07:45:44.819Z,16.43
2018-07-24T07:48:14.299Z,15.90
2018-07-24T07:50:43.891Z,16.10
2018-07-24T07:53:13.348Z,15.10
2018-07-24T07:55:42.844Z,15.73
2018-07-24T07:58:12.378Z,15.30
2018-07-24T08:00:41.911Z,15.43
2018-07-24T08:03:11.384Z,16.20
2018-07-24T08:05:41.113Z,14.37
2018-07-24T08:08:10.542Z,14.50
2018-07-24T08:10:40.063Z,15.17
2018-07-24T08:13:09.654Z,13.27
2018-07-24T08:15:39.212Z,13.50
2018-07-24T08:18:08.731Z,14.10
2018-07-24T08:20:38.279Z,14.13
2018-07-24T08:23:07.814Z,13.10
2018-07-24T08:25:37.284Z,13.33
2018-07-24T08:28:07.021Z,13.30
2018-07-24T08:30:36.627Z,12.80
2018-07-24T08:33:06.164Z,13.43
2018-07-24T08:35:35.787Z,12.60
2018-07-24T08:38:05.465Z,12.03
2018-07-24T08:40:35.171Z,12.40
2018-07-24T08:43:04.692Z,12.97
2018-07-24T08:45:34.221Z,12.10
2018-07-24T08:48:03.794Z,12.47
2018-07-24T08:50:33.283Z,11.70
2018-07-24T08:53:02.855Z,11.67
2018-07-24T08:55:32.675Z,12.83
2018-07-24T08:58:01.918Z,10.60
2018-07-24T09:00:31.420Z,11.50
2018-07-24T09:03:00.935Z,11.50
2018-07-24T09:05:30.354Z,10.43
2018-07-24T09:07:59.859Z,11.07
2018-07-24T09:10:29.370Z,10.83
2018-07-24T09:12:58.853Z,11.27
2018-07-24T09:15:28.500Z,10.60
2018-07-24T09:17:57.999Z,11.40
2018-07-24T09:20:27.477Z,10.70
2018-07-24T09:22:57.096Z,10.33
2018-07-24T09:25:26.720Z,11.60
2018-07-24T09:27:56.169Z,10.20
2018-07-24T09:30:25.651Z,10.63
2018-07-24T09:32:55.522Z,10.03
2018-07-24T09:35:25.040Z,11.37
2018-07-24T09:37:54.517Z,10.90
2018-07-24T09:40:24.076Z,10.10
2018-07-24T09:42:53.557Z,9.63
2018-07-24T09:45:23.070Z,9.90
2018-07-24T09:47:52.621Z,9.70
2018-07-24T09:50:22.141Z,9.90
2018-07-24T09:52:51.598Z,10.53
2018-07-24T09:55:20.707Z,10.03
2018-07-24T09:57:50.091Z,10.27
2018-07-24T10:00:23.856Z,9.70
2018-07-24T10:02:53.351Z,10.30
2018-07-24T10:05:22.857Z,9.17
2018-07-24T10:07:52.372Z,9.57
2018-07-24T10:10:21.951Z,8.63
2018-07-24T10:12:51.488Z,9.87
2018-07-24T10:15:21.019Z,9.00
2018-07-24T10:17:50.552Z,9.77
2018-07-24T10:20:20.130Z,9.80
2018-07-24T10:22:49.584Z,9.90
2018-07-24T10:25:19.068Z,8.70
2018-07-24T10:27:48.690Z,10.43
2018-07-24T10:30:18.201Z,9.27
2018-07-24T10:32:47.688Z,9.13
2018-07-24T10:35:17.289Z,9.83
2018-07-24T10:37:48.652Z,9.80
2018-07-24T10:40:18.198Z,9.13
2018-07-24T10:42:47.724Z,9.00
2018-07-24T10:45:17.245Z,8.53
2018-07-24T10:47:46.702Z,8.10
2018-07-24T10:50:16.343Z,9.50
2018-07-24T10:52:45.891Z,9.10
2018-07-24T10:55:15.367Z,9.30
2018-07-24T10:57:44.877Z,8.80
2018-07-24T11:00:14.400Z,9.50
2018-07-24T11:02:43.928Z,7.83
2018-07-24T11:05:13.380Z,7.47
2018-07-24T11:07:42.824Z,8.77
2018-07-24T11:10:12.388Z,7.37
2018-07-24T11:12:41.859Z,8.80
2018-07-24T11:15:11.285Z,8.60
2018-07-24T11:17:40.814Z,8.57
2018-07-24T11:20:10.282Z,7.67
2018-07-24T11:22:39.907Z,8.10
2018-07-24T11:25:09.310Z,8.23
2018-07-24T11:27:38.882Z,8.30
2018-07-24T11:30:08.361Z,8.47
2018-07-24T11:32:37.861Z,9.10
2018-07-24T11:35:07.367Z,7.30
2018-07-24T11:37:36.865Z,8.73
2018-07-24T11:40:06.409Z,8.70
2018-07-24T11:42:35.849Z,7.90
2018-07-24T11:45:05.519Z,7.63
2018-07-24T11:47:34.888Z,8.30
2018-07-24T11:50:04.708Z,9.00
2018-07-24T11:52:34.203Z,8.10
2018-07-24T11:55:03.782Z,8.10
2018-07-24T11:57:33.556Z,7.90
2018-07-24T12:00:03.147Z,7.87
2018-07-24T12:02:32.690Z,7.53
2018-07-24T12:05:02.205Z,7.73
2018-07-24T12:07:31.723Z,6.87
2018-07-24T12:10:01.171Z,8.17
2018-07-24T12:12:30.681Z,7.47
2018-07-24T12:15:03.753Z,7.57
2018-07-24T12:17:33.353Z,7.40
2018-07-24T12:20:02.953Z,6.73
2018-07-24T12:22:32.395Z,7.10
2018-07-24T12:25:01.957Z,7.07
2018-07-24T12:27:31.508Z,6.63
2018-07-24T12:30:01.388Z,7.23
2018-07-24T12:32:31.696Z,7.10
2018-07-24T12:35:01.182Z,6.87
2018-07-24T12:37:31.175Z,7.20
2018-07-24T12:40:01.597Z,6.87
2018-07-24T12:42:31.085Z,7.10
2018-07-24T12:45:00.501Z,7.00
2018-07-24T12:47:30.000Z,7.10
2018-07-24T12:49:59.541Z,6.83
2018-07-24T12:52:29.099Z,7.30
2018-07-24T12:54:58.558Z,6.50
2018-07-24T12:57:28.590Z,6.67
2018-07-24T12:59:57.679Z,7.20
2018-07-24T13:02:28.092Z,6.90
2018-07-24T13:04:57.987Z,7.20
2018-07-24T13:07:27.747Z,6.17
2018-07-24T13:09:57.369Z,8.00
2018-07-24T13:12:26.886Z,7.00
2018-07-24T13:14:56.471Z,7.17
2018-07-24T13:17:25.997Z,6.33
2018-07-24T13:19:55.545Z,6.50
2018-07-24T13:22:25.037Z,6.37
2018-07-24T13:24:54.512Z,6.87
2018-07-24T13:27:24.001Z,6.57
2018-07-24T13:29:53.459Z,6.67
2018-07-24T13:32:23.051Z,6.93
2018-07-24T13:34:52.510Z,7.00
2018-07-24T13:37:21.978Z,7.10
2018-07-24T13:39:51.464Z,6.80
2018-07-24T13:42:21.103Z,6.77
2018-07-24T13:44:50.647Z,7.13
2018-07-24T13:47:20.197Z,5.83
2018-07-24T13:49:49.707Z,6.53
2018-07-24T13:52:19.232Z,6.70
2018-07-24T13:54:49.017Z,6.80
2018-07-24T13:57:18.531Z,6.73
2018-07-24T13:59:47.984Z,6.60
2018-07-24T14:02:17.472Z,6.93
2018-07-24T14:04:47.046Z,6.80
2018-07-24T14:07:16.494Z,6.93
2018-07-24T14:09:45.970Z,6.57
2018-07-24T14:12:15.469Z,6.30
2018-07-24T14:14:45.681Z,7.23
2018-07-24T14:17:15.403Z,7.30
2018-07-24T14:19:45.091Z,7.17
2018-07-24T14:22:14.676Z,7.17
2018-07-24T14:24:44.939Z,7.17
2018-07-24T14:27:14.514Z,7.43
2018-07-24T14:29:44.097Z,6.70
2018-07-24T14:32:13.815Z,7.43
2018-07-24T14:34:43.407Z,7.17
2018-07-24T14:37:13.041Z,7.57
2018-07-24T14:39:42.599Z,7.00
2018-07-24T14:42:11.824Z,7.40
2018-07-24T14:44:41.674Z,7.23
2018-07-24T14:47:11.296Z,8.00
2018-07-24T14:49:40.865Z,7.27
2018-07-24T14:52:10.509Z,7.10
2018-07-24T14:54:40.268Z,7.27
2018-07-24T14:57:09.846Z,7.33
2018-07-24T14:59:39.433Z,6.97
2018-07-24T15:02:11.965Z,7.27
2018-07-24T15:04:42.522Z,6.73
2018-07-24T15:07:12.046Z,7.20
2018-07-24T15:09:41.161Z,7.30
2018-07-24T15:12:10.737Z,7.50
2018-07-24T15:14:40.293Z,7.97
2018-07-24T15:17:10.185Z,8.07
2018-07-24T15:19:39.762Z,7.70
2018-07-24T15:22:09.475Z,8.10
2018-07-24T15:24:39.101Z,8.37
2018-07-24T15:27:08.701Z,7.60
2018-07-24T15:29:38.316Z,7.80
2018-07-24T15:32:07.989Z,8.17
2018-07-24T15:34:37.689Z,6.87
2018-07-24T15:37:07.699Z,8.07
2018-07-24T15:39:37.538Z,8.07
2018-07-24T15:42:07.602Z,7.30
2018-07-24T15:44:37.213Z,7.27
2018-07-24T15:47:07.028Z,8.33
2018-07-24T15:49:36.632Z,7.93
2018-07-24T15:52:06.475Z,8.03
2018-07-24T15:54:36.060Z,9.13
2018-07-24T15:57:05.621Z,8.60
2018-07-24T15:59:35.261Z,8.90
2018-07-24T16:02:05.031Z,8.83
2018-07-24T16:04:34.615Z,8.47
2018-07-24T16:07:04.370Z,7.80
2018-07-24T16:09:33.999Z,7.80
2018-07-24T16:12:03.960Z,8.17
2018-07-24T16:14:33.526Z,7.87
2018-07-24T16:17:03.226Z,8.10
2018-07-24T16:19:32.890Z,7.90
2018-07-24T16:22:11.053Z,8.20
2018-07-24T16:24:40.728Z,7.67
2018-07-24T16:27:10.598Z,8.17
2018-07-24T16:29:40.261Z,7.67
2018-07-24T16:32:09.910Z,8.00
2018-07-24T16:34:39.447Z,8.27
2018-07-24T16:37:09.191Z,8.00
2018-07-24T16:39:38.814Z,8.80
2018-07-24T16:42:08.785Z,8.00
2018-07-24T16:44:38.612Z,8.20
2018-07-24T16:47:08.783Z,9.10
2018-07-24T16:49:38.512Z,9.60
2018-07-24T16:52:08.071Z,8.50
2018-07-24T16:54:37.637Z,8.47
2018-07-24T16:57:07.296Z,8.43
2018-07-24T16:59:37.293Z,7.93
2018-07-24T17:02:07.091Z,8.57
2018-07-24T17:04:36.705Z,8.33
2018-07-24T17:07:06.592Z,8.73
2018-07-24T17:09:36.352Z,8.53
2018-07-24T17:12:06.480Z,8.20
2018-07-24T17:14:36.050Z,8.57
2018-07-24T17:17:05.814Z,9.30
2018-07-24T17:19:35.370Z,7.80
2018-07-24T17:22:05.036Z,9.00
2018-07-24T17:24:34.645Z,8.63
2018-07-24T17:27:04.253Z,7.90
2018-07-24T17:29:33.830Z,8.47
2018-07-24T17:32:03.808Z,7.87
2018-07-24T17:34:33.418Z,8.90
2018-07-24T17:37:03.059Z,8.57
2018-07-24T17:39:32.695Z,7.40
2018-07-24T17:42:02.349Z,7.87
2018-07-24T17:44:31.996Z,7.37
2018-07-24T17:47:01.796Z,8.30
2018-07-24T17:49:31.980Z,8.17
2018-07-24T17:52:07.866Z,8.60
2018-07-24T17:54:37.471Z,8.00
2018-07-24T17:57:07.031Z,8.60
2018-07-24T17:59:36.567Z,8.17
2018-07-24T18:02:06.286Z,8.30
2018-07-24T18:04:35.886Z,8.17
2018-07-24T18:07:05.551Z,7.50
2018-07-24T18:09:35.239Z,7.60
2018-07-24T18:12:04.855Z,7.80
2018-07-24T18:14:34.494Z,7.47
2018-07-24T18:17:04.176Z,7.70
2018-07-24T18:19:33.828Z,7.10
2018-07-24T18:22:03.375Z,7.43
2018-07-24T18:24:33.680Z,8.07
2018-07-24T18:27:04.068Z,7.97
2018-07-24T18:29:34.350Z,7.53
2018-07-24T18:32:05.400Z,8.37
2018-07-24T18:34:35.717Z,8.80
2018-07-24T18:37:06.023Z,8.80
2018-07-24T18:39:37.946Z,8.87
2018-07-24T18:42:07.948Z,8.40
2018-07-24T18:44:37.730Z,8.07
2018-07-24T18:47:06.882Z,8.17
2018-07-24T18:49:36.368Z,9.63
2018-07-24T18:52:06.012Z,9.50
2018-07-24T18:54:35.617Z,8.40
2018-07-24T18:57:05.250Z,8.13
2018-07-24T18:59:34.903Z,7.83
2018-07-24T19:02:04.572Z,9.17
2018-07-24T19:04:34.178Z,8.50
2018-07-24T19:07:03.768Z,8.30
2018-07-24T19:09:33.897Z,8.93
2018-07-24T19:12:03.556Z,9.50
2018-07-24T19:14:34.115Z,8.70
2018-07-24T19:17:03.778Z,9.00
2018-07-24T19:19:33.379Z,9.33
2018-07-24T19:22:03.048Z,8.43
2018-07-24T19:24:33.593Z,8.37
2018-07-24T19:27:03.247Z,9.20
2018-07-24T19:29:32.999Z,8.20
2018-07-24T19:32:02.817Z,9.87
2018-07-24T19:34:32.464Z,9.60
2018-07-24T19:37:02.013Z,8.57
2018-07-24T19:39:31.801Z,9.50
2018-07-24T19:42:01.784Z,8.93
2018-07-24T19:44:31.436Z,9.80
2018-07-24T19:47:01.100Z,10.50
2018-07-24T19:49:32.561Z,8.43
2018-07-24T19:52:02.436Z,7.47
2018-07-24T19:54:32.057Z,8.17
2018-07-24T19:57:01.634Z,8.27
2018-07-24T19:59:31.305Z,9.57
2018-07-24T20:02:00.955Z,9.60
2018-07-24T20:04:30.544Z,11.13
2018-07-24T20:07:00.232Z,10.73
2018-07-24T20:09:29.808Z,11.10
2018-07-24T20:11:59.371Z,11.53
2018-07-24T20:14:29.021Z,10.80
2018-07-24T20:16:58.605Z,11.30
2018-07-24T20:19:28.364Z,12.20
2018-07-24T20:21:58.152Z,12.17
2018-07-24T20:24:28.108Z,11.17
2018-07-24T20:26:57.963Z,10.63
2018-07-24T20:29:27.611Z,12.43
2018-07-24T20:31:57.208Z,12.70
2018-07-24T20:34:26.837Z,11.57
2018-07-24T20:36:56.583Z,11.37
2018-07-24T20:39:26.191Z,12.17
2018-07-24T20:41:55.444Z,12.13
2018-07-24T20:44:25.040Z,11.80
2018-07-24T20:46:54.783Z,12.80
2018-07-24T20:49:24.400Z,12.90
2018-07-24T20:51:54.498Z,11.93
2018-07-24T20:54:24.189Z,15.30
2018-07-24T20:56:53.817Z,12.40
2018-07-24T20:59:23.382Z,13.43
2018-07-24T21:01:53.601Z,13.30
2018-07-24T21:04:23.494Z,12.33
2018-07-24T21:06:53.128Z,13.33
2018-07-24T21:09:22.793Z,11.93
2018-07-24T21:11:52.354Z,13.07
2018-07-24T21:14:22.827Z,12.90
2018-07-24T21:16:53.136Z,14.07
2018-07-24T21:19:22.349Z,13.83
2018-07-24T21:21:51.672Z,13.17
2018-07-24T21:24:22.925Z,13.37
2018-07-24T21:26:52.576Z,13.30
2018-07-24T21:29:23.993Z,14.70
2018-07-24T21:31:53.570Z,14.73
2018-07-24T21:34:24.561Z,12.77
2018-07-24T21:36:54.215Z,14.83
2018-07-24T21:39:23.707Z,14.07
2018-07-24T21:41:53.218Z,15.23
2018-07-24T21:44:22.763Z,15.30
2018-07-24T21:46:52.234Z,16.33
2018-07-24T21:49:22.852Z,15.60
2018-07-24T21:51:52.319Z,16.90
2018-07-24T21:54:22.250Z,16.57
2018-07-24T21:56:52.312Z,15.10
2018-07-24T21:59:22.062Z,14.70
2018-07-24T22:01:51.544Z,17.07
2018-07-24T22:04:21.292Z,16.13
2018-07-24T22:06:50.753Z,17.70
2018-07-24T22:09:20.250Z,17.00
2018-07-24T22:11:50.049Z,16.00
2018-07-24T22:14:19.560Z,17.50
2018-07-24T22:16:49.426Z,17.60
2018-07-24T22:19:19.024Z,17.60
2018-07-24T22:21:48.479Z,16.73
2018-07-24T22:24:18.372Z,16.63
2018-07-24T22:26:48.594Z,17.40
2018-07-24T22:29:18.634Z,17.60
2018-07-24T22:31:48.082Z,18.57
2018-07-24T22:34:17.682Z,18.57
2018-07-24T22:36:47.454Z,18.03
2018-07-24T22:39:16.961Z,18.30
2018-07-24T22:41:46.402Z,19.50
2018-07-24T22:44:16.212Z,19.33
2018-07-24T22:46:45.752Z,19.03
2018-07-24T22:49:15.277Z,19.40
2018-07-24T22:51:45.030Z,18.37
2018-07-24T22:54:14.540Z,19.83
2018-07-24T22:56:44.322Z,18.50
2018-07-24T22:59:14.303Z,19.47
2018-07-24T23:01:43.778Z,20.80
2018-07-24T23:04:12.871Z,19.60
2018-07-24T23:06:42.195Z,20.13
2018-07-24T23:09:11.540Z,20.97
2018-07-24T23:11:41.043Z,21.30
2018-07-24T23:14:10.498Z,20.60
2018-07-24T23:16:39.980Z,19.90
2018-07-24T23:19:09.496Z,19.47
2018-07-24T23:21:38.932Z,19.80
2018-07-24T23:24:08.453Z,19.13
2018-07-24T23:26:37.992Z,20.27
2018-07-24T23:29:07.545Z,20.87
2018-07-24T23:31:37.119Z,19.93
2018-07-24T23:34:06.636Z,19.13
2018-07-24T23:36:36.196Z,18.33
2018-07-24T23:39:08.168Z,19.87
2018-07-24T23:41:37.636Z,19.90
2018-07-24T23:44:07.517Z,20.83
2018-07-24T23:46:37.304Z,20.17
2018-07-24T23:49:06.869Z,19.30
2018-07-24T23:51:36.367Z,20.97
2018-07-24T23:54:05.933Z,19.20
2018-07-24T23:56:35.024Z,20.87
2018-07-24T23:59:04.410Z,21.33
